Time;durP1;ratioP1;P1;durP2;ratioP2;P2;SDS_P1;SDS_P2;PMS_P1;PMS_P2;Temp;Humidity;BMP_temperature;BMP_pressure;BME280_temperature;BME280_humidity;BME280_pressure;Samples;Min_cycle;Max_cycle;Signal;HPM_P1;HPM_P2
2023/07/11 00:00:59;;;;;;;14.07;7.25;;;19.50;99.90;;;;;;5108639;28;20032;-78
2023/07/11 00:03:25;;;;;;;11.88;7.30;;;19.50;99.90;;;;;;5105782;28;20041;-77
2023/07/11 00:06:05;;;;;;;12.50;8.18;;;19.50;99.90;;;;;;5074609;28;20036;-79
2023/07/11 00:08:31;;;;;;;12.27;7.00;;;19.60;99.90;;;;;;5107059;28;20070;-76
2023/07/11 00:10:57;;;;;;;14.15;6.85;;;19.50;99.90;;;;;;5108044;28;20039;-76
2023/07/11 00:13:23;;;;;;;16.40;7.90;;;19.40;99.90;;;;;;5108353;28;20023;-77
2023/07/11 00:16:13;;;;;;;11.40;7.30;;;19.40;99.90;;;;;;5108398;28;20035;-77
2023/07/11 00:18:38;;;;;;;11.32;7.30;;;19.40;99.90;;;;;;5108499;28;20590;-77
2023/07/11 00:21:04;;;;;;;14.93;7.13;;;19.40;99.90;;;;;;5108315;28;20099;-74
2023/07/11 00:23:30;;;;;;;11.98;7.38;;;19.30;99.90;;;;;;5118642;28;20079;-79
2023/07/11 00:25:56;;;;;;;12.57;7.40;;;19.20;99.90;;;;;;5111980;28;20076;-77
2023/07/11 00:28:22;;;;;;;14.13;7.85;;;19.10;99.90;;;;;;5108934;28;20066;-77
2023/07/11 00:30:49;;;;;;;11.18;7.10;;;19.00;99.90;;;;;;5113172;28;20024;-77
2023/07/11 00:33:15;;;;;;;11.70;7.18;;;19.10;99.90;;;;;;5112443;28;20368;-79
2023/07/11 00:35:44;;;;;;;10.25;6.82;;;19.00;99.90;;;;;;5113070;28;20027;-77
2023/07/11 00:38:10;;;;;;;11.60;7.25;;;18.80;99.90;;;;;;5122423;27;20019;-76
2023/07/11 00:40:40;;;;;;;12.70;7.53;;;18.70;99.90;;;;;;5132169;27;20038;-78
2023/07/11 00:43:10;;;;;;;11.73;7.90;;;18.70;99.90;;;;;;5112692;28;20047;-73
2023/07/11 00:46:02;;;;;;;13.55;7.45;;;18.70;99.90;;;;;;5094881;28;20078;-81
2023/07/11 00:48:30;;;;;;;13.63;7.40;;;18.80;99.90;;;;;;5112283;27;20609;-79
2023/07/11 00:50:56;;;;;;;13.73;7.10;;;18.70;99.90;;;;;;5112907;28;20020;-76
2023/07/11 00:53:25;;;;;;;11.48;6.68;;;18.60;99.90;;;;;;5126099;27;20034;-77
2023/07/11 00:55:50;;;;;;;14.18;7.53;;;18.50;99.90;;;;;;5133063;27;20471;-78
2023/07/11 00:58:19;;;;;;;14.77;7.32;;;18.50;99.90;;;;;;5114155;27;20077;-77
2023/07/11 01:00:45;;;;;;;13.80;7.90;;;18.50;99.90;;;;;;5116129;27;20032;-78
2023/07/11 01:03:11;;;;;;;12.18;7.13;;;18.60;99.90;;;;;;5107810;28;20031;-78
2023/07/11 01:05:38;;;;;;;17.30;7.15;;;18.60;99.90;;;;;;5110626;28;20258;-77
2023/07/11 01:08:04;;;;;;;12.85;7.68;;;18.70;99.90;;;;;;5118339;27;20028;-77
2023/07/11 01:10:30;;;;;;;11.93;7.47;;;18.70;99.90;;;;;;5110123;28;20442;-77
2023/07/11 01:13:04;;;;;;;13.05;7.82;;;18.60;99.90;;;;;;5111650;28;20031;-79
2023/07/11 01:15:30;;;;;;;11.27;7.25;;;18.60;99.90;;;;;;5109820;28;20078;-77
2023/07/11 01:17:55;;;;;;;15.77;7.65;;;18.60;99.90;;;;;;5110713;28;20055;-77
2023/07/11 01:20:22;;;;;;;11.40;7.50;;;18.60;99.90;;;;;;5109395;28;20043;-77
2023/07/11 01:22:51;;;;;;;13.50;7.68;;;18.50;99.90;;;;;;5108234;28;20072;-79
2023/07/11 01:25:18;;;;;;;12.63;7.28;;;18.30;99.90;;;;;;5109047;28;20044;-77
2023/07/11 01:27:46;;;;;;;18.23;7.93;;;18.30;99.90;;;;;;5109520;28;20039;-79
2023/07/11 01:30:16;;;;;;;13.52;7.40;;;18.20;99.90;;;;;;5107685;28;20056;-73
2023/07/11 01:32:42;;;;;;;13.63;7.47;;;18.10;99.90;;;;;;5109645;28;20036;-76
2023/07/11 01:35:08;;;;;;;13.40;8.45;;;18.10;99.90;;;;;;5106903;28;20039;-73
2023/07/11 01:37:35;;;;;;;13.15;7.57;;;18.10;99.90;;;;;;5105711;27;20035;-78
2023/07/11 01:40:01;;;;;;;11.40;7.55;;;18.20;99.90;;;;;;5109821;28;20032;-78
2023/07/11 01:42:27;;;;;;;11.70;7.75;;;18.20;99.90;;;;;;5091584;28;20042;-77
2023/07/11 01:44:53;;;;;;;16.95;7.75;;;18.00;99.90;;;;;;5109484;28;20047;-77
2023/07/11 01:47:18;;;;;;;11.98;7.13;;;17.90;99.90;;;;;;5108912;28;20059;-77
2023/07/11 01:49:44;;;;;;;12.50;7.68;;;17.80;99.90;;;;;;5111497;28;20028;-79
2023/07/11 01:52:14;;;;;;;12.40;7.30;;;17.80;99.90;;;;;;5109848;28;20027;-72
2023/07/11 01:54:40;;;;;;;16.75;7.97;;;17.80;99.90;;;;;;5110811;28;20108;-78
2023/07/11 01:57:08;;;;;;;12.90;7.70;;;17.80;99.90;;;;;;5110853;28;20696;-77
2023/07/11 01:59:36;;;;;;;12.00;7.95;;;17.90;99.90;;;;;;5109681;28;20035;-76
2023/07/11 02:02:02;;;;;;;12.70;7.13;;;18.00;99.90;;;;;;5109271;28;20039;-76
2023/07/11 02:04:28;;;;;;;13.27;7.78;;;18.00;99.90;;;;;;5109579;28;20039;-74
2023/07/11 02:06:53;;;;;;;13.43;8.20;;;17.90;99.90;;;;;;5090664;28;20035;-78
2023/07/11 02:09:20;;;;;;;13.30;7.90;;;17.90;99.90;;;;;;5107683;28;20031;-77
2023/07/11 02:11:47;;;;;;;13.52;7.35;;;17.70;99.90;;;;;;5108662;27;20031;-77
2023/07/11 02:14:14;;;;;;;13.57;8.15;;;17.70;99.90;;;;;;5092311;28;20028;-73
2023/07/11 02:16:44;;;;;;;13.35;7.80;;;17.70;99.90;;;;;;5110388;28;20059;-79
2023/07/11 02:19:13;;;;;;;12.32;7.82;;;17.70;99.90;;;;;;5110635;28;20181;-77
2023/07/11 02:21:39;;;;;;;12.53;8.13;;;17.60;99.90;;;;;;5088672;28;20019;-80
2023/07/11 02:24:10;;;;;;;15.48;8.35;;;17.50;99.90;;;;;;5107005;28;20523;-77
2023/07/11 02:26:36;;;;;;;14.00;7.43;;;17.40;99.90;;;;;;5102761;28;20153;-78
2023/07/11 02:29:02;;;;;;;12.68;7.22;;;17.40;99.90;;;;;;5106521;28;20103;-76
2023/07/11 02:31:27;;;;;;;11.52;7.60;;;17.50;99.90;;;;;;5077235;28;20024;-77
2023/07/11 02:33:53;;;;;;;11.73;7.57;;;17.50;99.90;;;;;;5105801;27;20062;-78
2023/07/11 02:36:19;;;;;;;13.32;7.70;;;17.40;99.90;;;;;;5096377;27;20338;-77
2023/07/11 02:38:45;;;;;;;12.10;7.32;;;17.40;99.90;;;;;;5094419;27;20753;-80
2023/07/11 02:41:11;;;;;;;13.80;7.88;;;17.40;99.90;;;;;;5103275;28;20160;-81
2023/07/11 02:43:36;;;;;;;13.38;7.82;;;17.50;99.90;;;;;;5097247;27;20036;-77
2023/07/11 02:46:05;;;;;;;13.77;7.57;;;17.40;99.90;;;;;;5102573;27;20031;-77
2023/07/11 02:48:31;;;;;;;11.10;7.60;;;17.30;99.90;;;;;;5095961;28;20048;-80
2023/07/11 02:50:56;;;;;;;13.32;7.45;;;17.20;99.90;;;;;;5108294;27;20042;-78
2023/07/11 02:53:22;;;;;;;13.95;7.82;;;17.30;99.90;;;;;;5125787;27;20092;-77
2023/07/11 02:55:51;;;;;;;12.10;7.97;;;17.20;99.90;;;;;;5086992;28;20032;-79
2023/07/11 02:58:17;;;;;;;12.57;8.00;;;17.20;99.90;;;;;;5115129;27;20038;-72
2023/07/11 03:00:53;;;;;;;12.30;8.05;;;17.00;99.90;;;;;;5106476;28;20085;-80
2023/07/11 03:03:18;;;;;;;13.10;7.97;;;17.00;99.90;;;;;;5103736;28;20035;-78
2023/07/11 03:05:49;;;;;;;17.05;8.40;;;17.00;99.90;;;;;;5108700;28;20027;-73
2023/07/11 03:08:15;;;;;;;;;;;17.10;99.90;;;;;;5106722;28;20035;-71
2023/07/11 03:10:41;;;;;;;13.25;7.47;;;17.00;99.90;;;;;;5106458;28;19922;-71
2023/07/11 03:13:07;;;;;;;13.45;7.85;;;17.10;99.90;;;;;;5105449;28;20383;-73
2023/07/11 03:15:37;;;;;;;14.75;8.48;;;17.00;99.90;;;;;;5100543;28;20035;-72
2023/07/11 03:18:03;;;;;;;12.95;8.00;;;17.00;99.90;;;;;;5109516;27;20031;-72
2023/07/11 03:20:28;;;;;;;13.73;7.88;;;16.90;99.90;;;;;;5107092;28;20040;-72
2023/07/11 03:22:54;;;;;;;15.18;8.10;;;16.90;99.90;;;;;;5108985;28;20031;-71
2023/07/11 03:25:20;;;;;;;12.15;7.55;;;16.90;99.90;;;;;;5111678;27;20038;-72
2023/07/11 03:27:46;;;;;;;12.77;8.18;;;16.90;99.90;;;;;;5108950;28;20035;-72
2023/07/11 03:30:12;;;;;;;13.48;8.60;;;16.90;99.90;;;;;;5107025;28;20032;-72
2023/07/11 03:32:37;;;;;;;13.45;8.43;;;16.90;99.90;;;;;;5108203;27;20029;-72
2023/07/11 03:35:04;;;;;;;14.52;8.00;;;16.90;99.90;;;;;;5114242;27;20028;-72
2023/07/11 03:37:30;;;;;;;14.32;7.70;;;16.90;99.90;;;;;;5107773;28;20486;-71
2023/07/11 03:39:56;;;;;;;12.05;8.10;;;16.90;99.90;;;;;;5116389;27;20440;-72
2023/07/11 03:42:22;;;;;;;13.32;7.70;;;16.80;99.90;;;;;;5129029;27;20041;-71
2023/07/11 03:44:47;;;;;;;12.90;8.15;;;16.80;99.90;;;;;;5108461;27;20115;-73
2023/07/11 03:47:13;;;;;;;13.80;7.47;;;16.70;99.90;;;;;;5094622;28;20051;-71
2023/07/11 03:49:39;;;;;;;16.13;7.90;;;16.70;99.90;;;;;;5107790;28;20038;-73
2023/07/11 03:52:05;;;;;;;11.82;7.38;;;16.60;99.90;;;;;;5112405;27;20043;-72
2023/07/11 03:54:30;;;;;;;13.07;7.93;;;16.60;99.90;;;;;;5112721;28;20035;-71
2023/07/11 03:56:56;;;;;;;13.80;7.85;;;16.70;99.90;;;;;;5113641;27;20034;-73
2023/07/11 03:59:22;;;;;;;14.65;8.88;;;16.70;99.90;;;;;;5105527;28;20050;-72
2023/07/11 04:01:47;;;;;;;15.40;8.77;;;16.70;99.90;;;;;;5099233;28;20031;-71
2023/07/11 04:04:13;;;;;;;14.68;8.57;;;16.70;99.90;;;;;;5112079;27;20035;-71
2023/07/11 04:06:39;;;;;;;14.60;8.45;;;16.80;99.90;;;;;;5107027;28;20660;-72
2023/07/11 04:09:05;;;;;;;14.07;8.65;;;16.60;99.90;;;;;;5095382;28;20028;-72
2023/07/11 04:11:31;;;;;;;13.70;8.15;;;16.70;99.90;;;;;;5105271;28;20035;-73
2023/07/11 04:13:56;;;;;;;13.82;8.80;;;16.70;99.90;;;;;;5106911;28;20097;-71
2023/07/11 04:16:22;;;;;;;12.90;8.32;;;16.70;99.90;;;;;;5088355;28;20369;-72
2023/07/11 04:18:48;;;;;;;14.63;8.50;;;16.70;99.90;;;;;;5111079;28;20417;-72
2023/07/11 04:21:13;;;;;;;13.85;8.00;;;16.80;99.90;;;;;;5088480;28;20479;-73
2023/07/11 04:23:39;;;;;;;14.95;8.43;;;16.80;99.90;;;;;;5085290;28;20613;-71
2023/07/11 04:26:04;;;;;;;15.70;8.40;;;16.80;99.90;;;;;;5106993;28;20039;-72
2023/07/11 04:28:30;;;;;;;16.95;8.38;;;16.80;99.90;;;;;;5107200;28;20047;-72
2023/07/11 04:30:56;;;;;;;12.63;8.23;;;16.80;99.90;;;;;;5106274;28;20107;-71
2023/07/11 04:33:22;;;;;;;13.35;8.30;;;16.90;99.90;;;;;;5107959;28;20031;-71
2023/07/11 04:35:48;;;;;;;12.68;8.30;;;16.80;99.90;;;;;;5128863;28;20034;-72
2023/07/11 04:38:14;;;;;;;14.05;8.45;;;16.90;99.90;;;;;;5129330;28;20479;-72
2023/07/11 04:40:39;;;;;;;14.05;8.73;;;17.00;99.90;;;;;;5128672;28;20034;-72
2023/07/11 04:43:06;;;;;;;14.90;8.80;;;17.00;99.90;;;;;;5129384;28;20028;-71
2023/07/11 04:45:33;;;;;;;14.43;8.45;;;17.10;99.90;;;;;;5128397;28;20039;-72
2023/07/11 04:48:03;;;;;;;14.88;8.80;;;17.20;99.90;;;;;;5115657;28;20068;-71
2023/07/11 04:50:29;;;;;;;16.48;8.60;;;17.20;99.90;;;;;;5108034;28;20034;-72
2023/07/11 04:52:55;;;;;;;14.45;9.07;;;17.30;99.90;;;;;;5108518;28;20111;-72
2023/07/11 04:55:20;;;;;;;16.38;8.77;;;17.30;99.90;;;;;;5094690;28;20040;-73
2023/07/11 04:57:46;;;;;;;16.42;9.05;;;17.10;99.90;;;;;;5129200;28;20363;-71
2023/07/11 05:00:12;;;;;;;14.75;8.80;;;17.10;99.90;;;;;;5129371;28;20023;-73
2023/07/11 05:02:38;;;;;;;15.02;9.43;;;17.10;99.90;;;;;;5128468;28;20031;-71
2023/07/11 05:05:04;;;;;;;16.20;8.73;;;17.10;99.90;;;;;;5110589;28;20038;-73
2023/07/11 05:07:29;;;;;;;17.63;9.25;;;17.20;99.90;;;;;;5128356;28;20023;-72
2023/07/11 05:09:55;;;;;;;16.02;9.98;;;17.40;99.90;;;;;;5127899;28;20471;-72
2023/07/11 05:12:21;;;;;;;17.15;9.77;;;17.50;99.90;;;;;;5121308;28;20538;-69
2023/07/11 05:14:46;;;;;;;15.55;9.13;;;17.80;99.90;;;;;;5099334;28;20035;-72
2023/07/11 05:17:12;;;;;;;20.48;10.40;;;18.00;99.90;;;;;;5110373;28;20035;-72
2023/07/11 05:19:37;;;;;;;13.73;9.40;;;18.20;99.90;;;;;;5111372;28;20071;-71
2023/07/11 05:22:03;;;;;;;15.25;9.80;;;18.20;99.90;;;;;;5110850;28;20474;-71
2023/07/11 05:24:30;;;;;;;16.38;10.02;;;18.40;99.90;;;;;;5110055;28;20036;-72
2023/07/11 05:26:56;;;;;;;15.88;8.98;;;18.50;99.90;;;;;;5109109;28;20023;-71
2023/07/11 05:29:22;;;;;;;16.40;9.30;;;18.50;99.90;;;;;;5110008;28;20142;-70
2023/07/11 05:31:48;;;;;;;15.52;8.80;;;18.50;99.90;;;;;;5109772;28;20107;-72
2023/07/11 05:34:14;;;;;;;16.73;8.88;;;18.50;99.90;;;;;;5110873;28;20111;-72
2023/07/11 05:36:39;;;;;;;15.95;9.77;;;18.60;99.90;;;;;;5110870;28;20475;-72
2023/07/11 05:39:10;;;;;;;19.30;8.80;;;18.80;99.90;;;;;;5111839;27;20023;-72
2023/07/11 05:41:38;;;;;;;17.30;9.23;;;18.90;99.90;;;;;;5111147;28;20460;-71
2023/07/11 05:44:04;;;;;;;16.35;9.70;;;19.00;99.90;;;;;;5109207;28;20151;-71
2023/07/11 05:46:30;;;;;;;14.88;9.10;;;19.10;99.90;;;;;;5109801;28;20024;-71
2023/07/11 05:48:57;;;;;;;14.00;8.70;;;19.20;99.90;;;;;;5109259;28;20492;-72
2023/07/11 05:51:23;;;;;;;15.00;10.15;;;19.40;99.90;;;;;;5109632;28;20118;-70
2023/07/11 05:53:50;;;;;;;14.20;8.73;;;19.50;99.90;;;;;;5110368;28;20098;-72
2023/07/11 05:56:17;;;;;;;15.90;8.48;;;19.60;99.90;;;;;;5111321;28;20031;-72
2023/07/11 05:58:43;;;;;;;15.50;8.57;;;19.70;99.90;;;;;;5117477;27;20039;-72
2023/07/11 06:01:14;;;;;;;15.18;9.40;;;19.80;99.90;;;;;;5131819;27;20106;-72
2023/07/11 06:03:45;;;;;;;15.30;8.90;;;20.00;99.90;;;;;;5130679;27;20550;-71
2023/07/11 06:06:12;;;;;;;13.52;9.10;;;20.10;99.90;;;;;;5131835;27;20472;-73
2023/07/11 06:08:38;;;;;;;19.35;9.18;;;20.30;99.90;;;;;;5111334;27;20529;-71
2023/07/11 06:11:05;;;;;;;14.70;9.48;;;20.40;99.90;;;;;;5092455;28;20118;-72
2023/07/11 06:13:33;;;;;;;15.25;8.80;;;20.50;99.90;;;;;;5110383;28;20027;-70
2023/07/11 06:16:13;;;;;;;15.88;9.13;;;20.70;99.90;;;;;;5111046;28;20051;-72
2023/07/11 06:18:39;;;;;;;13.68;9.30;;;20.80;99.90;;;;;;5116579;27;20039;-73
2023/07/11 06:21:07;;;;;;;14.68;9.00;;;21.10;99.90;;;;;;5131528;27;20076;-72
2023/07/11 06:23:33;;;;;;;17.42;8.57;;;21.20;99.90;;;;;;5130825;27;20054;-71
2023/07/11 06:25:58;;;;;;;14.68;9.13;;;21.20;99.90;;;;;;5130608;27;20474;-71
2023/07/11 06:28:25;;;;;;;17.50;8.93;;;21.40;99.90;;;;;;5131215;27;20367;-70
2023/07/11 06:30:51;;;;;;;14.05;9.32;;;21.50;99.90;;;;;;5129200;27;20058;-71
2023/07/11 06:33:18;;;;;;;12.65;8.80;;;21.70;99.90;;;;;;5131367;27;20066;-71
2023/07/11 06:35:48;;;;;;;17.05;9.10;;;21.90;99.90;;;;;;5130379;27;20083;-71
2023/07/11 06:38:14;;;;;;;14.98;8.63;;;22.10;99.90;;;;;;5131465;27;20031;-70
2023/07/11 06:40:40;;;;;;;12.98;8.40;;;22.20;99.90;;;;;;5130141;27;20030;-71
2023/07/11 06:43:06;;;;;;;17.88;9.13;;;22.40;99.90;;;;;;5131066;27;20028;-72
2023/07/11 06:45:31;;;;;;;13.45;8.77;;;22.50;99.90;;;;;;5091842;28;20070;-70
2023/07/11 06:47:57;;;;;;;14.13;8.73;;;22.60;99.90;;;;;;5110356;28;20043;-70
2023/07/11 06:50:23;;;;;;;15.20;8.63;;;22.80;99.90;;;;;;5110375;28;20464;-70
2023/07/11 06:52:48;;;;;;;15.52;7.45;;;22.90;99.90;;;;;;5109463;28;20064;-73
2023/07/11 06:55:14;;;;;;;15.07;8.60;;;23.00;99.90;;;;;;5110673;28;20032;-73
2023/07/11 06:57:40;;;;;;;19.10;9.27;;;23.20;99.90;;;;;;5109119;28;20031;-70
2023/07/11 07:00:07;;;;;;;10.43;7.65;;;23.40;99.90;;;;;;5126538;27;20434;-72
2023/07/11 07:02:32;;;;;;;14.63;8.15;;;23.70;99.90;;;;;;5129893;27;20123;-72
2023/07/11 07:04:58;;;;;;;14.38;7.68;;;23.90;99.90;;;;;;5130634;27;20122;-73
2023/07/11 07:07:24;;;;;;;14.48;7.43;;;24.20;99.90;;;;;;5112108;27;20023;-72
2023/07/11 07:09:50;;;;;;;14.30;7.97;;;24.50;99.90;;;;;;5129633;27;20030;-71
2023/07/11 07:12:16;;;;;;;12.27;7.50;;;24.80;99.90;;;;;;5130516;27;20025;-71
2023/07/11 07:14:41;;;;;;;10.48;7.13;;;25.10;99.90;;;;;;5129035;27;20039;-70
2023/07/11 07:17:07;;;;;;;9.18;5.90;;;25.40;99.90;;;;;;5125326;27;20175;-72
2023/07/11 07:19:32;;;;;;;10.10;5.85;;;25.70;97.00;;;;;;5109128;28;20024;-72
2023/07/11 07:21:58;;;;;;;7.78;4.85;;;26.00;94.80;;;;;;5109905;28;20031;-71
2023/07/11 07:24:24;;;;;;;10.20;5.82;;;26.20;92.10;;;;;;5109494;28;20047;-72
2023/07/11 07:26:49;;;;;;;9.88;5.35;;;26.50;91.90;;;;;;5108718;28;20058;-72
2023/07/11 07:29:15;;;;;;;9.32;5.47;;;26.80;91.80;;;;;;5111717;27;20098;-72
2023/07/11 07:31:41;;;;;;;8.38;5.55;;;27.00;91.80;;;;;;5088448;28;20074;-73
2023/07/11 07:34:07;;;;;;;9.10;5.57;;;27.20;88.60;;;;;;5089441;28;20452;-72
2023/07/11 07:36:33;;;;;;;7.95;5.03;;;27.40;87.40;;;;;;5088391;28;20078;-70
2023/07/11 07:38:59;;;;;;;9.88;5.03;;;27.60;82.00;;;;;;5088383;28;20024;-72
2023/07/11 07:41:26;;;;;;;14.00;5.70;;;27.60;84.40;;;;;;5089017;28;20024;-73
2023/07/11 07:43:51;;;;;;;11.65;5.53;;;27.70;82.60;;;;;;5115065;27;20031;-72
2023/07/11 07:46:19;;;;;;;8.73;5.25;;;27.80;84.10;;;;;;5093765;27;20047;-72
2023/07/11 07:48:44;;;;;;;12.23;5.45;;;27.80;82.50;;;;;;5106497;28;20058;-71
2023/07/11 07:51:16;;;;;;;16.55;6.32;;;27.80;81.60;;;;;;5109271;28;20023;-71
2023/07/11 07:53:42;;;;;;;10.00;5.43;;;27.90;81.80;;;;;;5108662;28;20376;-72
2023/07/11 07:56:20;;;;;;;9.25;5.60;;;28.10;79.20;;;;;;5109142;28;20028;-70
2023/07/11 07:58:46;;;;;;;9.60;5.30;;;28.30;81.40;;;;;;5121826;27;20028;-72
2023/07/11 08:01:15;;;;;;;7.82;5.80;;;28.40;80.20;;;;;;5129848;27;20027;-70
2023/07/11 08:03:41;;;;;;;6.75;5.53;;;28.60;79.20;;;;;;5128985;27;20027;-72
2023/07/11 08:06:08;;;;;;;9.13;6.35;;;28.90;81.10;;;;;;5129669;27;20087;-72
2023/07/11 08:08:33;;;;;;;11.25;6.32;;;28.80;79.50;;;;;;5126866;27;20178;-69
2023/07/11 08:11:03;;;;;;;10.05;6.07;;;28.90;80.80;;;;;;5128898;27;20144;-72
2023/07/11 08:13:29;;;;;;;;;;;29.00;79.90;;;;;;5129896;28;20032;-70
2023/07/11 08:15:55;;;;;;;7.60;6.10;;;28.80;80.20;;;;;;5128731;28;19903;-71
2023/07/11 08:18:20;;;;;;;9.80;5.82;;;28.60;80.70;;;;;;5114790;28;20055;-72
2023/07/11 08:20:46;;;;;;;7.30;5.72;;;28.60;80.30;;;;;;5108155;28;20156;-71
2023/07/11 08:23:12;;;;;;;10.52;6.15;;;28.80;79.40;;;;;;5121364;28;20055;-72
2023/07/11 08:25:37;;;;;;;9.23;6.70;;;28.90;79.00;;;;;;5128572;28;20088;-72
2023/07/11 08:28:06;;;;;;;14.55;6.68;;;29.10;80.70;;;;;;5127407;28;20037;-72
2023/07/11 08:30:36;;;;;;;9.88;7.00;;;29.00;79.60;;;;;;5126796;28;20679;-70
2023/07/11 08:33:02;;;;;;;9.27;6.55;;;28.90;79.60;;;;;;5129600;28;20031;-70
2023/07/11 08:35:28;;;;;;;14.68;7.13;;;29.00;81.30;;;;;;5129466;28;20107;-70
2023/07/11 08:37:54;;;;;;;10.77;6.90;;;29.00;80.60;;;;;;5128594;28;20011;-71
2023/07/11 08:40:25;;;;;;;14.52;7.07;;;29.00;80.70;;;;;;5129393;28;20027;-72
2023/07/11 08:42:52;;;;;;;12.90;6.43;;;29.00;80.60;;;;;;5128370;28;20080;-72
2023/07/11 08:45:27;;;;;;;9.90;6.65;;;29.20;80.40;;;;;;5125698;28;20054;-71
2023/07/11 08:48:11;;;;;;;13.15;7.35;;;29.30;78.70;;;;;;5107488;28;20487;-70
2023/07/11 08:50:46;;;;;;;15.80;7.15;;;29.50;77.50;;;;;;5111498;28;20115;-70
2023/07/11 08:53:17;;;;;;;14.40;7.53;;;29.80;79.30;;;;;;5112805;28;20035;-71
2023/07/11 08:55:47;;;;;;;12.02;7.10;;;29.80;77.80;;;;;;5111705;28;20510;-70
2023/07/11 08:58:21;;;;;;;15.32;7.00;;;29.60;80.30;;;;;;5112238;28;20541;-71
2023/07/11 09:00:50;;;;;;;10.63;7.15;;;30.00;78.00;;;;;;5111455;28;20403;-73
2023/07/11 09:03:30;;;;;;;12.57;7.13;;;30.10;78.50;;;;;;5112503;28;20175;-71
2023/07/11 09:06:06;;;;;;;;;;;30.10;79.80;;;;;;5112024;28;20164;-72
2023/07/11 09:08:34;;;;;;;11.80;7.60;;;30.20;78.20;;;;;;5112304;28;19912;-71
2023/07/11 09:11:15;;;;;;;14.02;7.78;;;30.10;78.60;;;;;;5111842;28;20019;-70
2023/07/11 09:13:59;;;;;;;12.98;8.57;;;30.30;77.20;;;;;;5115479;27;20023;-71
2023/07/11 09:16:33;;;;;;;11.60;7.32;;;30.50;76.50;;;;;;5132703;27;20031;-73
2023/07/11 09:19:20;;;;;;;8.13;6.57;;;30.70;77.50;;;;;;5114932;27;20469;-71
2023/07/11 09:21:57;;;;;;;16.67;7.18;;;31.00;75.70;;;;;;5111380;28;20024;-74
2023/07/11 09:24:35;;;;;;;14.50;7.43;;;31.30;75.70;;;;;;5112135;28;20126;-72
2023/07/11 09:27:32;;;;;;;16.60;7.25;;;31.60;73.60;;;;;;5114120;27;20015;-71
2023/07/11 09:29:58;;;;;;;9.98;7.47;;;31.50;74.70;;;;;;5105974;28;20151;-72
2023/07/11 09:32:33;;;;;;;11.75;7.68;;;31.40;72.50;;;;;;5112087;28;20094;-71
2023/07/11 09:35:25;;;;;;;14.57;8.95;;;31.20;73.50;;;;;;5111191;28;20054;-71
2023/07/11 09:37:57;;;;;;;10.40;7.70;;;31.20;75.00;;;;;;5111158;28;20028;-72
2023/07/11 09:40:56;;;;;;;15.57;8.02;;;31.20;76.10;;;;;;5111925;28;20422;-73
2023/07/11 09:43:22;;;;;;;18.60;8.85;;;30.70;78.60;;;;;;5091208;28;20032;-70
2023/07/11 09:45:47;;;;;;;11.85;8.38;;;30.00;80.20;;;;;;5090569;28;20043;-73
2023/07/11 09:48:17;;;;;;;19.83;8.38;;;29.70;82.60;;;;;;5119802;27;20057;-71
2023/07/11 09:50:55;;;;;;;13.25;7.68;;;29.90;82.40;;;;;;5131331;27;20023;-72
2023/07/11 09:53:23;;;;;;;11.25;8.23;;;30.20;81.50;;;;;;5131954;27;20032;-71
2023/07/11 09:55:57;;;;;;;21.25;8.60;;;30.20;81.90;;;;;;5126662;27;20039;-73
2023/07/11 09:58:26;;;;;;;15.40;8.45;;;30.40;82.40;;;;;;5117410;27;20062;-71
2023/07/11 10:00:54;;;;;;;12.90;7.53;;;30.60;79.80;;;;;;5124283;27;20038;-73
2023/07/11 10:03:23;;;;;;;18.20;8.85;;;30.80;78.90;;;;;;5125717;27;20110;-72
2023/07/11 10:05:50;;;;;;;10.63;7.97;;;31.30;78.60;;;;;;5129944;27;20039;-71
2023/07/11 10:08:23;;;;;;;12.38;8.15;;;31.50;76.10;;;;;;5131658;27;20024;-71
2023/07/11 10:10:54;;;;;;;13.93;8.43;;;31.70;76.40;;;;;;5131166;27;20024;-73
2023/07/11 10:13:21;;;;;;;15.38;8.63;;;31.50;77.00;;;;;;5131693;27;20019;-72
2023/07/11 10:15:55;;;;;;;11.43;8.35;;;31.20;77.10;;;;;;5130951;27;20031;-71
2023/07/11 10:18:32;;;;;;;13.68;8.77;;;31.30;75.50;;;;;;5115572;27;20413;-72
2023/07/11 10:21:10;;;;;;;17.77;8.98;;;31.40;75.70;;;;;;5130792;27;20684;-70
2023/07/11 10:23:36;;;;;;;11.43;8.10;;;32.00;71.80;;;;;;5131667;27;20023;-71
2023/07/11 10:26:11;;;;;;;16.02;8.82;;;32.00;71.40;;;;;;5128342;27;20096;-73
2023/07/11 10:28:43;;;;;;;14.43;8.88;;;32.10;74.20;;;;;;5111747;27;20136;-71
2023/07/11 10:31:18;;;;;;;12.18;8.35;;;32.10;70.90;;;;;;5110990;28;20432;-72
2023/07/11 10:33:53;;;;;;;12.85;8.57;;;32.10;70.00;;;;;;5109852;28;20475;-72
2023/07/11 10:36:27;;;;;;;14.52;8.90;;;32.50;70.10;;;;;;5110797;28;20479;-72
2023/07/11 10:39:12;;;;;;;14.00;8.25;;;32.70;67.20;;;;;;5109870;28;20066;-71
2023/07/11 10:41:57;;;;;;;13.10;8.93;;;32.20;70.30;;;;;;5114715;27;20431;-70
2023/07/11 10:44:33;;;;;;;17.60;9.10;;;32.20;66.80;;;;;;5131379;27;20455;-70
2023/07/11 10:46:59;;;;;;;19.85;8.85;;;32.50;65.20;;;;;;5125959;27;20684;-71
2023/07/11 10:49:36;;;;;;;17.55;8.50;;;32.50;66.50;;;;;;5110699;28;20035;-72
2023/07/11 10:52:23;;;;;;;14.65;8.77;;;32.90;65.70;;;;;;5109684;28;20020;-71
2023/07/11 10:55:26;;;;;;;12.98;8.30;;;32.90;63.00;;;;;;5109640;28;20046;-71
2023/07/11 10:57:53;;;;;;;14.65;8.82;;;32.70;65.20;;;;;;5123926;27;20080;-69
2023/07/11 11:00:37;;;;;;;16.85;8.90;;;32.30;60.60;;;;;;5128932;27;20102;-71
2023/07/11 11:03:21;;;;;;;14.80;8.68;;;32.40;59.90;;;;;;5109521;28;20016;-72
2023/07/11 11:06:00;;;;;;;14.98;8.20;;;32.80;62.60;;;;;;5120455;27;20771;-73
2023/07/11 11:08:30;;;;;;;12.15;8.48;;;32.80;61.00;;;;;;5130763;27;20019;-72
2023/07/11 11:11:20;;;;;;;12.77;8.25;;;32.90;61.20;;;;;;5129814;27;20023;-75
2023/07/11 11:14:02;;;;;;;;;;;32.60;59.20;;;;;;5130219;27;20023;-71
2023/07/11 11:16:50;;;;;;;12.55;8.20;;;32.40;60.70;;;;;;5130469;27;20026;-71
2023/07/11 11:19:31;;;;;;;12.05;8.23;;;32.70;61.30;;;;;;5089603;28;20059;-71
2023/07/11 11:22:05;;;;;;;16.38;8.30;;;32.70;61.30;;;;;;5088611;28;20392;-71
2023/07/11 11:25:00;;;;;;;12.70;8.70;;;32.60;62.30;;;;;;5089457;28;20067;-70
2023/07/11 11:27:53;;;;;;;12.25;8.45;;;32.50;62.50;;;;;;5089220;28;20020;-72
2023/07/11 11:30:39;;;;;;;13.18;8.40;;;32.90;61.80;;;;;;5109069;28;20090;-71
2023/07/11 11:33:40;;;;;;;13.63;8.32;;;32.80;60.70;;;;;;5108741;28;20038;-71
2023/07/11 11:36:24;;;;;;;12.48;8.20;;;32.80;61.80;;;;;;5097507;28;20062;-72
2023/07/11 11:39:14;;;;;;;16.15;7.80;;;33.00;60.90;;;;;;5090338;28;20409;-72
2023/07/11 11:41:43;;;;;;;15.82;8.05;;;33.30;60.70;;;;;;5108507;28;20028;-71
2023/07/11 11:44:34;;;;;;;12.80;8.50;;;33.70;61.00;;;;;;5109078;28;20464;-72
2023/07/11 11:47:00;;;;;;;13.50;8.57;;;34.00;59.50;;;;;;5093511;28;20119;-70
2023/07/11 11:49:26;;;;;;;16.05;8.52;;;33.80;60.90;;;;;;5109481;28;20781;-72
2023/07/11 11:51:53;;;;;;;15.63;8.55;;;33.50;61.70;;;;;;5116689;27;20099;-70
2023/07/11 11:54:22;;;;;;;12.55;8.70;;;33.50;60.80;;;;;;5129974;27;20023;-74
2023/07/11 11:56:53;;;;;;;12.45;8.10;;;33.40;60.90;;;;;;5128980;27;20031;-70
2023/07/11 11:59:26;;;;;;;15.68;8.18;;;33.10;62.50;;;;;;5129978;27;20056;-71
2023/07/11 12:01:57;;;;;;;12.38;7.82;;;32.90;62.80;;;;;;5129267;27;20035;-70
2023/07/11 12:04:29;;;;;;;12.40;7.90;;;33.00;64.70;;;;;;5129303;27;20413;-73
2023/07/11 12:07:01;;;;;;;13.98;8.90;;;32.90;63.60;;;;;;5118442;27;20501;-72
2023/07/11 12:10:02;;;;;;;18.15;8.60;;;33.30;63.50;;;;;;5109054;28;20158;-70
2023/07/11 12:12:36;;;;;;;14.55;8.10;;;33.60;62.40;;;;;;5109071;28;20050;-71
2023/07/11 12:15:11;;;;;;;11.93;8.23;;;33.00;63.80;;;;;;5107931;28;20458;-71
2023/07/11 12:17:39;;;;;;;14.75;8.60;;;32.90;64.90;;;;;;5109682;28;20100;-71
2023/07/11 12:20:08;;;;;;;13.13;8.55;;;33.40;63.60;;;;;;5107971;28;20640;-72
2023/07/11 12:22:36;;;;;;;17.52;9.02;;;33.80;64.10;;;;;;5122321;28;20024;-72
2023/07/11 12:25:05;;;;;;;15.30;8.85;;;33.50;64.90;;;;;;5130649;27;20075;-71
2023/07/11 12:27:30;;;;;;;20.85;8.85;;;33.40;63.90;;;;;;5133670;27;20023;-71
2023/07/11 12:29:57;;;;;;;14.95;8.55;;;33.70;62.10;;;;;;5133108;27;20041;-72
2023/07/11 12:32:32;;;;;;;13.02;8.88;;;33.70;63.50;;;;;;5133434;27;20463;-72
2023/07/11 12:35:08;;;;;;;18.63;8.63;;;33.60;63.10;;;;;;5132630;27;20031;-72
2023/07/11 12:37:46;;;;;;;14.25;8.45;;;33.60;64.50;;;;;;5131591;27;20379;-75
2023/07/11 12:40:26;;;;;;;15.23;8.95;;;33.60;63.40;;;;;;5133200;27;20031;-72
2023/07/11 12:42:57;;;;;;;13.38;8.57;;;33.80;62.00;;;;;;5132941;27;20039;-70
2023/07/11 12:45:26;;;;;;;16.05;9.05;;;33.80;62.50;;;;;;5133262;27;20396;-72
2023/07/11 12:48:04;;;;;;;23.98;9.07;;;33.80;64.10;;;;;;5121038;27;20430;-71
2023/07/11 12:50:51;;;;;;;15.68;9.30;;;33.90;61.90;;;;;;5112028;28;20102;-70